KPWM

Portland International Jetport Airport

Portland, Maine, USA
METAR KPWM 171751Z 27013KT 10SM SCT049 BKN060 13/03 A2970 RMK AO2 SLP055 60000 T01280028 10139 20061 56034
Observed Flight Rules
Oct-17 @ 17:51 UTC (29 minutes ago) Visual Flight Rules
Wind Visibility Clouds
270° at 13 knots 10 miles
  • Scattered at 4,900' AGL
  • Broken at 6,000' AGL
Temperatures Readings
Current 13°C / 55°F
Dewpoint 3°C / 37°F
Humidity 51%
Altimeter 29.7" Hg
Pressure 1005.5 hPa
Elevation 15
METAR KPWM 171751Z 27013KT 10SM SCT049 BKN060 13/03 A2970 RMK AO2 SLP055 60000 T01280028 10139 20061 56034
Observed Flight Rules
Oct-17 @ 17:51 UTC
(29 minutes ago)
VFR
Wind Visibility
270° at 13 knots 10 miles
Clouds
  • Scattered at 4,900' AGL
  • Broken at 6,000' AGL
Temperature Dewpoint
13°C / 55°F 3°C / 37°F
Humidity Altimeter Pressure
51% 29.7" Hg 1005.5 hPa